Terminal Aerodrome Forecast
Issued by NWS

Home | Current Version | Previous Version | Text Only | Print | Product List | Glossary On
Versions: 1 2 3 4 5 6 7 8 9 10 11 12 13 14 15 16 17 18 19 20 21
000
FTUS43 KAPX 282340
TAFMBL
TAF
KMBL 282340Z 2900/2924 18012KT P6SM VCSH BKN035 OVC060
      WS020/20050KT
      TEMPO 2902/2906 4SM -SHRA BKN025 OVC040
     FM290600 21016KT 5SM BR OVC025 WS020/22045KT
     FM291300 23011KT P6SM BKN040
     FM291800 23013KT P6SM SCT070
     FM292300 25008KT P6SM SCT090=

USA.gov is the U.S. government's official web portal to all federal, state and local government web resources and services.